Greenbank, WA (98253)

12:01 PM PDT on September 01, 2014 (GMT -0700)
Lagoon Point | Change Station
CLOSE
Current Station
Personal Weather Station
Location: Greenbank, WA
Elevation: 20 ft
Nearby Weather Stations

Elev 20 ft 48.07 °N, 122.61 °W | Updated 13 minutes ago

Partly Cloudy
Partly Cloudy
67.1 °F
Feels Like 67.1 °F
N
7.8
Wind Variable Wind from SSE

Today
High -- | Low -- °F
--% Chance of Precip.
Yesterday
High -- | Low -- °F
Precip. -- in
6:28 AM 7:51 PM
Waxing Crescent, 43% visible
Pressure 30.09 in
Visibility 10.0 miles
Clouds Clear
Dew Point 59 °F
Humidity 76%
Rainfall 0.00 in
Snow Depth Not available.
UV 7 out of 12
Pollen 2.80 out of 12
PM2.5 Good
Flu Activity Not available.
METAR KNUW 011856Z AUTO 15011KT 10SM CLR 21/12 A3008 RMK AO2 SLP188 T02110122 $

More Conditions Fewer Conditions

Pressure 30.09 in
Visibility 10.0 miles
Clouds Clear
Dew Point 59 °F
Humidity 76%
Rainfall 0.00 in
Snow Depth Not available.
UV 7 out of 12
Pollen 2.80 out of 12
PM2.5 Good
Flu Activity Not available.
METAR KNUW 011856Z AUTO 15011KT 10SM CLR 21/12 A3008 RMK AO2 SLP188 T02110122 $

More Conditions Fewer Conditions

10-Day Weather Forecast

Almanac

Astronomy

Sep. 01, 2014 Rise Set
Actual Time 6:28 AM PDT 7:51 PM PDT
Civil Twilight 5:56 AM PDT 8:23 PM PDT
Nautical Twilight 5:16 AM PDT 9:02 PM PDT
Astronomical Twilight 4:34 AM PDT 9:44 PM PDT
Moon 1:50 PM PDT 11:25 PM PDT
Length of Visible Light 14h 27m
Length of Day
13h 22m
Tomorrow will be 3m 23s shorter.
Waxing Crescent, 43% of the Moon is Illuminated
Today
Waxing Crescent
Sep 2
First Quarter
Sep 8
Full
Sep 15
Last Quarter
Sep 24
New

Today's Extremes

State Highs State Lows

Community

WunderPhotos

Upload Photos

1,749,367 photos uploaded!

WunderBlogs® & News

Nearby

Air Quality

  Air Quality AQ Index Pollutant
Yesterday Good
PM2.5
Current Good
PM2.5

Snow Depth

Station Depth Elevation
Dungeness 0 in 4100 ft
Alpine Meadows 0 in 3500 ft
Meadows Pass 0 in 3500 ft
Lyman Lake 0 in 5900 ft
Stampede Pass 1 in 3860 ft

Earthquake Activity

City Distance Mag. Time & Date
No recent earthquake activity has been reported nearby.
Minimum magnitude displayed is 2.5.

Coastal Water Temperatures

Place Temperature
Port Townsend, WA 53.1 °F
Friday Harbor, WA 53.1 °F
Port Angeles, WA 52.0 °F

Nearby Weather Stations